Aeroporto :
LOGIN :

Iscrizione | Disclaimer

   EN    FR    IT 

 










Sommario :    VFR   VFR Marginale   IFR   IFR Intensivo   IFR Molto Intensivo
Visibilità : 
Base nubi : 
>= 8 km
>= 3000ft
5 / 8 km
1000 / 3000 ft
1500m / 5 km
500 / 1000 ft
800 / 1500m
200 / 500 ft
< 800m
< 200 ft
Simboli :   Temporali  Nebbia  Neve Forte  Precipitazioni Forti  Vento > 20 kt
SIGMETs :   Varie  Temporali  Ghiacco  Turbolenza  Onda orograficha  Ceneri Vulcaniche







- Altitudine del aeroporto : 187 ft


ETNW - Wunstorf AB

ULTIMO METAR :
  • 180420Z 12004KT 9999 FEW070 BKN320 17/14 Q1016 BLU+BLU+

METARs OBSOLETI :
  • 180320Z 14002KT 9999 FEW150 SCT300 16/14 Q1016 BLU+
  • 180220Z 14003KT 9999 FEW300 16/13 Q1016 BLU+

TAF COR TAF ETNW
Valido dal 18 a 05 ore il 19 a 05 ore UTC


180459Z 1805/1905 17007KT 9999 NSW FEW060 BKN250
TEMPO 1812/1815 VRB10KT 9999 NSW SCT050CB BKN190
BECMG 1815/1817 VRB03KT 9999 NSW SCT080 BKN150
TEMPO 1815/1903 VRB15KT 9999 NSW SCT050CB BKN120
PROB30 1816/1903 VRB15G30KT 5000 TSRA BKN050CB BKN100 BY ETGL
Nessun NOTAM noto per questo aeroporto.



MetMap, La meteo Aeronautica in un colpo d'occhio ! - Copyright ORBIFLY Dicembre 2007 - Disclaimer

ORBIFLY MET'MAP TEAM :

Programmazione e sviluppo : Alexandra Zaïnal
Concezione e sviluppo : Baudouin d'Aumeries
Co-Programmazione e sviluppo : Marc-Olivier Méhu
Supporto tecnico e logistico : Manuel Goepfert
Aiuto per la traduzione : Arnaldo La Scala

Contatto : metmap@orbifly.com




FONTI E CREDITI :

   NOAA